Latest Weather Observations for Applethorpe

IDN60801

Issued at 10:03 pm EDT Tuesday 24 October 2017 (issued every 30 minutes, with the page automatically refreshed every 10 minutes)

About weather observations | Map of weather stations | Latest weather observations for NSW | Other Formats
Station Details ID: 041175 Name: APPLETHORPE Lat: -28.62 Lon: 151.95 Height: 871.6 m
Data from the previous 72 hours. | See also: Recent months at Applethorpe
Date/Time
EDT
Temp
°C
App
Temp
°C
Dew
Point
°C
Rel
Hum
%
Delta-T
°C
Wind Press
QNH
hPa
Press
MSL
hPa
Rain since
9am
mm
Dir  Spd
km/h
Gust
km/h
Spd
kts
Gust
kts
24/10:00pm 10.9 11.0 10.0 94 0.5 CALM 0 0 0 0 1022.3 1019.7 0.2
24/09:30pm 11.8 11.7 10.7 93 0.6 NE 2 6 1 3 1022.0 1019.4 0.2
24/09:00pm 12.1 12.3 10.6 90 0.8 CALM 0 0 0 0 1021.8 1019.2 0.2
24/08:30pm 13.3 13.2 9.3 77 2.1 CALM 0 0 0 0 1021.6 1019.0 0.2
24/08:00pm 13.8 13.7 9.5 75 2.3 CALM 0 0 0 0 1021.2 1018.5 0.2
24/07:30pm 15.1 15.3 10.6 74 2.5 CALM 0 0 0 0 1021.0 1018.3 0.2
24/07:00pm 17.7 17.7 9.7 59 4.4 CALM 0 2 0 1 1020.7 1018.1 0.2
24/06:30pm 19.6 19.3 8.6 49 6.0 CALM 0 0 0 0 1020.4 1017.8 0.2
24/06:00pm 19.7 18.5 8.0 46 6.3 N 4 6 2 3 1020.3 1017.7 0.2
24/05:30pm 20.1 18.6 8.5 47 6.3 NNW 6 11 3 6 1020.2 1017.5 0.2
24/05:00pm 21.1 19.5 8.0 43 7.1 W 6 11 3 6 1020.2 1017.5 0.2
24/04:30pm 20.7 19.1 8.6 45 6.6 WSW 7 13 4 7 1020.2 1017.5 0.2
24/04:00pm 20.5 18.9 8.8 47 6.4 WSW 7 13 4 7 1020.3 1017.7 0.2
24/03:30pm 19.4 18.6 8.1 48 6.1 WNW 2 6 1 3 1020.5 1017.9 0.2
24/03:00pm 20.3 18.9 8.8 47 6.3 W 6 7 3 4 1020.9 1018.2 0.2
24/02:30pm 19.1 17.9 7.9 48 6.0 W 4 7 2 4 1021.2 1018.5 0.2
24/02:00pm 19.2 18.2 8.9 51 5.6 SW 4 11 2 6 1021.4 1018.8 0.2
24/01:30pm 18.4 16.3 8.3 51 5.4 SW 9 15 5 8 1021.7 1019.1 0.2
24/01:00pm 19.7 17.8 7.5 45 6.5 N 7 19 4 10 1021.8 1019.2 0.2
24/12:30pm 18.0 16.0 7.3 49 5.6 NNW 7 13 4 7 1022.2 1019.5 0.2
24/12:00pm 18.0 16.3 7.6 50 5.5 N 6 11 3 6 1022.3 1019.7 0.2
24/11:30am 19.9 18.9 8.9 49 6.0 N 4 13 2 7 1022.5 1019.9 0.2
24/11:00am 18.3 16.0 7.5 49 5.7 NNE 9 15 5 8 1022.6 1020.0 0.2
24/10:30am 17.4 16.4 7.3 51 5.3 N 2 7 1 4 1022.9 1020.3 0.2
24/10:00am 16.4 14.8 7.8 56 4.5 N 6 9 3 5 1023.1 1020.5 27.6
24/09:30am 14.9 14.0 9.3 69 3.0 NNE 4 7 2 4 1023.1 1020.5 27.6
24/09:00am 14.4 13.4 10.2 76 2.3 NE 6 9 3 5 1023.0 1020.4 27.6
24/08:30am 12.8 11.7 10.0 83 1.5 NNE 6 9 3 5 1022.8 1020.2 27.6
24/08:00am 11.2 10.5 9.9 92 0.7 NE 4 4 2 2 1022.4 1019.8 27.6
24/07:30am 8.3 7.4 7.7 96 0.3 NE 2 4 1 2 1022.3 1019.7 27.6
24/07:00am 6.2 5.3 6.0 99 0.1 CALM 0 2 0 1 1022.3 1019.7 27.6
24/06:30am 4.8 3.6 4.8 100 0.0 CALM 0 0 0 0 1021.7 1019.1 27.6
24/06:00am 4.5 3.2 4.3 99 0.1 CALM 0 0 0 0 1021.7 1019.1 27.6
24/05:30am 4.8 2.8 4.6 99 0.1 N 4 4 2 2 1021.4 1018.8 27.6
24/05:00am 4.6 3.4 4.4 99 0.1 CALM 0 0 0 0 1021.0 1018.3 27.6
24/04:30am 5.0 3.8 4.6 97 0.2 CALM 0 0 0 0 1020.7 1018.1 27.6
24/04:00am 5.0 3.8 4.8 99 0.1 CALM 0 0 0 0 1020.7 1018.1 27.6
24/03:30am 5.1 4.0 5.1 100 0.0 CALM 0 0 0 0 1020.5 1017.9 27.6
24/03:00am 5.1 4.0 5.1 100 0.0 CALM 0 0 0 0 1020.6 1018.0 27.6
24/02:30am 5.5 4.0 5.1 97 0.2 N 2 4 1 2 1020.6 1018.0 27.6
24/02:00am 6.0 5.0 5.6 97 0.2 CALM 0 0 0 0 1021.0 1018.3 27.6
24/01:30am 5.5 4.4 5.3 99 0.1 CALM 0 0 0 0 1021.2 1018.5 27.6
24/01:00am 5.2 4.1 5.2 100 0.0 CALM 0 0 0 0 1021.2 1018.5 27.6
24/12:30am 5.2 4.1 5.2 100 0.0 CALM 0 0 0 0 1021.2 1018.5 27.6
24/12:00am 6.0 4.7 6.0 100 0.0 N 2 4 1 2 1021.1 1018.4 27.6
 
Date/Time
EDT
Temp
°C
App
Temp
°C
Dew
Point
°C
Rel
Hum
%
Delta-T
°C
Wind Press
QNH
hPa
Press
MSL
hPa
Rain since
9am
mm
Dir  Spd
km/h
Gust
km/h
Spd
kts
Gust
kts
23/11:30pm 6.4 4.8 6.2 99 0.1 NE 4 6 2 3 1021.0 1018.3 27.6
23/11:00pm 6.7 5.9 6.3 97 0.2 CALM 0 0 0 0 1020.7 1018.1 27.6
23/10:30pm 6.4 5.4 5.8 96 0.3 CALM 0 0 0 0 1020.6 1018.0 27.6
23/10:00pm 7.2 6.1 7.0 99 0.1 N 2 6 1 3 1020.5 1017.9 27.6
23/09:30pm 7.6 7.0 7.2 97 0.2 CALM 0 0 0 0 1020.4 1017.8 27.6
23/09:00pm 8.5 7.6 7.9 96 0.3 E 2 4 1 2 1020.3 1017.7 27.6
23/08:30pm 9.1 8.7 8.3 95 0.4 CALM 0 0 0 0 1020.1 1017.4 27.6
23/08:00pm 9.4 8.2 8.2 92 0.6 ENE 4 9 2 5 1019.7 1017.0 27.6
23/07:30pm 9.6 8.1 8.4 92 0.6 ENE 6 7 3 4 1019.3 1016.7 27.6
23/07:00pm 9.9 8.4 8.5 91 0.7 E 6 11 3 6 1019.0 1016.3 27.6
23/06:30pm 10.2 8.7 8.4 89 0.9 E 6 15 3 8 1018.6 1015.9 27.6
23/06:00pm 10.9 9.5 9.0 88 1.0 ENE 6 15 3 8 1018.0 1015.3 27.6
23/05:30pm 11.2 9.9 9.1 87 1.1 E 6 13 3 7 1017.7 1015.0 27.6
23/05:00pm 10.5 9.5 8.8 89 0.9 ESE 4 9 2 5 1017.5 1014.8 27.6
23/04:30pm 9.7 8.3 8.7 93 0.5 ENE 6 9 3 5 1017.5 1014.8 27.6
23/04:00pm 9.3 7.8 8.5 95 0.4 E 6 13 3 7 1017.2 1014.4 27.6
23/03:30pm 9.3 7.6 8.5 95 0.4 NE 7 15 4 8 1017.3 1014.6 25.8
23/03:00pm 8.5 7.3 8.1 97 0.2 SE 4 9 2 5 1017.2 1014.4 24.8
23/02:30pm 9.1 7.2 7.7 91 0.7 ESE 7 15 4 8 1016.3 1013.6 15.6
23/02:00pm 13.2 12.4 11.6 90 0.9 S 7 15 4 8 1016.1 1013.3 1.6
23/01:30pm 16.0 13.2 6.9 54 4.7 SE 11 20 6 11 1015.7 1013.0 0.2
23/01:00pm 16.7 14.5 8.0 56 4.6 E 9 19 5 10 1016.2 1013.5 0.2
23/12:30pm 16.0 14.3 10.0 67 3.3 ENE 9 20 5 11 1016.7 1014.0 0.2
23/12:00pm 16.3 14.1 9.3 63 3.8 NE 11 19 6 10 1016.9 1014.2 0.2
23/11:30am 16.6 14.4 9.4 62 3.9 N 11 17 6 9 1017.2 1014.4 0.2
23/11:00am 17.4 15.6 9.3 59 4.4 NNE 9 17 5 9 1017.6 1014.9 0.2
23/10:30am 16.8 15.1 9.9 64 3.8 N 9 17 5 9 1017.8 1015.1 0.0
23/10:00am 15.7 14.3 9.4 66 3.4 NNW 7 13 4 7 1017.7 1015.0 1.4
23/09:30am 15.1 14.4 10.2 72 2.7 NE 4 6 2 3 1017.6 1014.9 1.4
23/09:00am 13.7 13.5 10.4 80 1.8 E 2 6 1 3 1017.6 1014.9 1.4
23/08:30am 12.8 12.4 11.2 90 0.9 ENE 4 7 2 4 1017.2 1014.4 1.4
23/08:00am 10.9 10.3 10.3 96 0.3 ENE 4 9 2 5 1016.9 1014.2 1.4
23/07:30am 9.8 9.3 9.4 97 0.2 NNE 2 6 1 3 1016.6 1013.9 1.4
23/07:00am 9.3 8.7 9.1 99 0.1 NE 2 6 1 3 1016.4 1013.7 1.4
23/06:30am 8.3 7.4 7.9 97 0.2 NE 2 4 1 2 1016.1 1013.3 1.4
23/06:00am 8.7 7.9 8.3 97 0.2 E 2 4 1 2 1015.6 1012.9 1.4
23/05:30am 9.3 9.0 8.7 96 0.3 CALM 0 0 0 0 1015.3 1012.6 1.4
23/05:00am 10.1 10.1 9.7 97 0.2 CALM 0 2 0 1 1015.1 1012.3 1.4
23/04:30am 10.5 9.4 9.9 96 0.3 ENE 6 13 3 7 1015.0 1012.2 1.4
23/04:00am 9.3 9.0 8.7 96 0.3 CALM 0 0 0 0 1015.1 1012.3 0.0
23/03:30am 9.5 8.5 8.9 96 0.3 NNE 4 6 2 3 1015.0 1012.2 0.0
23/03:00am 9.6 8.6 9.0 96 0.3 NNE 4 6 2 3 1015.2 1012.5 0.0
23/02:30am 10.0 9.1 9.4 96 0.3 ENE 4 6 2 3 1015.5 1012.8 0.0
23/02:00am 10.3 9.1 9.5 95 0.4 ENE 6 7 3 4 1015.8 1013.1 0.0
23/01:30am 10.1 9.2 9.3 95 0.4 ENE 4 7 2 4 1016.1 1013.3 0.0
23/01:00am 9.9 9.0 9.1 95 0.4 ENE 4 6 2 3 1016.2 1013.5 0.0
23/12:30am 10.0 9.1 9.4 96 0.3 ENE 4 7 2 4 1016.5 1013.8 0.0
23/12:00am 10.1 9.3 9.5 96 0.3 ENE 4 7 2 4 1016.6 1013.9 0.0
 
Date/Time
EDT
Temp
°C
App
Temp
°C
Dew
Point
°C
Rel
Hum
%
Delta-T
°C
Wind Press
QNH
hPa
Press
MSL
hPa
Rain since
9am
mm
Dir  Spd
km/h
Gust
km/h
Spd
kts
Gust
kts
22/11:30pm 10.3 9.8 9.5 95 0.4 ENE 2 6 1 3 1016.6 1013.9 0.0
22/11:00pm 10.1 9.9 9.1 93 0.5 CALM 0 0 0 0 1016.6 1013.9 0.0
22/10:30pm 10.7 10.2 9.2 90 0.8 ENE 2 7 1 4 1016.5 1013.8 0.0
22/10:00pm 11.4 10.3 8.5 82 1.5 E 4 7 2 4 1016.3 1013.6 0.0
22/09:30pm 11.6 10.7 9.3 86 1.2 NE 4 6 2 3 1016.0 1013.2 0.0
22/09:00pm 12.4 11.9 9.4 82 1.6 ENE 2 2 1 1 1015.7 1013.0 0.0
22/08:30pm 12.8 12.9 10.0 83 1.5 CALM 0 2 0 1 1015.4 1012.7 0.0
22/08:00pm 13.8 12.8 8.9 72 2.6 ENE 4 6 2 3 1015.0 1012.2 0.0
22/07:30pm 13.5 12.5 7.2 65 3.2 ENE 2 6 1 3 1014.4 1011.7 0.0
22/07:00pm 15.5 13.8 6.0 53 4.8 SW 4 7 2 4 1014.0 1011.2 0.0
22/06:30pm 17.5 14.9 4.4 42 6.5 WSW 7 11 4 6 1013.7 1010.9 0.0
22/06:00pm 17.9 15.1 5.0 42 6.5 WSW 9 17 5 9 1013.3 1010.6 0.0
22/05:30pm 18.9 15.5 4.0 37 7.4 SW 11 19 6 10 1013.1 1010.4 0.0
22/05:00pm 19.1 15.7 3.8 36 7.6 WSW 11 19 6 10 1012.9 1010.1 0.0
22/04:30pm 19.3 16.5 2.9 33 8.0 SW 7 17 4 9 1012.8 1010.0 0.0
22/04:00pm 19.4 17.0 5.4 40 7.2 W 7 17 4 9 1012.8 1010.0 0.0
22/03:30pm 18.6 15.9 5.5 42 6.7 SW 9 19 5 10 1013.0 1010.2 0.0
22/03:00pm 18.8 16.1 5.8 42 6.7 WSW 9 19 5 10 1013.3 1010.6 0.0
22/02:30pm 18.3 15.5 5.3 42 6.6 WSW 9 19 5 10 1013.6 1010.8 0.0
22/02:00pm 17.9 15.2 5.8 45 6.2 SW 9 19 5 10 1013.8 1011.0 0.0
22/01:30pm 18.0 15.3 5.7 44 6.3 WSW 9 15 5 8 1014.1 1011.3 0.0
22/01:00pm 17.6 15.4 5.4 44 6.2 WSW 6 13 3 7 1014.3 1011.6 0.0
22/12:30pm 16.5 14.3 5.4 48 5.6 SW 6 13 3 7 1014.8 1012.0 0.0
22/12:00pm 16.5 14.8 6.1 50 5.3 SW 4 7 2 4 1014.9 1012.1 0.0
22/11:30am 15.3 13.0 4.7 49 5.2 SW 6 13 3 7 1015.2 1012.5 0.0
22/11:00am 15.5 13.9 6.5 55 4.6 S 4 9 2 5 1015.3 1012.6 0.0
22/10:30am 13.8 11.5 4.8 54 4.4 SW 6 9 3 5 1015.4 1012.7 0.0
22/10:00am 14.2 11.7 4.0 50 4.9 SSE 6 9 3 5 1015.7 1013.0 15.2
22/09:30am 11.8 10.9 7.9 77 2.0 W 2 6 1 3 1015.7 1013.0 15.2
22/09:00am 11.1 10.8 8.8 86 1.2 CALM 0 4 0 2 1015.7 1013.0 15.2
22/08:30am 9.5 8.8 8.7 95 0.4 ENE 2 4 1 2 1015.6 1012.9 15.2
22/08:00am 8.3 7.4 7.9 97 0.2 S 2 4 1 2 1015.5 1012.8 15.2
22/07:30am 7.8 6.8 7.4 97 0.2 SSE 2 6 1 3 1015.3 1012.6 15.2
22/07:00am 7.2 6.6 7.2 100 0.0 CALM 0 4 0 2 1015.2 1012.5 15.0
22/06:30am 6.7 5.9 6.5 99 0.1 CALM 0 2 0 1 1015.0 1012.2 15.0
22/06:00am 6.3 5.4 5.9 97 0.2 CALM 0 0 0 0 1014.6 1011.9 15.0
22/05:30am 5.7 4.7 5.7 100 0.0 CALM 0 0 0 0 1014.5 1011.8 15.0
22/05:00am 6.7 5.9 6.5 99 0.1 CALM 0 2 0 1 1014.5 1011.8 15.0
22/04:30am 7.5 6.1 7.1 97 0.2 SW 4 6 2 3 1014.6 1011.9 15.0
22/04:00am 7.6 7.0 7.4 99 0.1 CALM 0 2 0 1 1014.8 1012.0 15.0
22/03:30am 8.6 8.1 7.8 95 0.4 CALM 0 0 0 0 1015.1 1012.3 15.0
22/03:00am 9.3 8.5 8.1 92 0.6 ESE 2 7 1 4 1015.3 1012.6 15.0
22/02:30am 9.6 8.9 8.4 92 0.6 ESE 2 6 1 3 1015.6 1012.9 15.0
22/02:00am 9.6 8.9 8.4 92 0.6 ESE 2 7 1 4 1016.0 1013.2 15.0
22/01:30am 9.4 8.7 8.6 95 0.4 E 2 6 1 3 1016.2 1013.5 15.0
22/01:00am 9.0 8.2 8.2 95 0.4 ENE 2 4 1 2 1016.4 1013.7 15.0
22/12:30am 9.2 8.4 8.2 93 0.5 ESE 2 9 1 5 1016.5 1013.8 15.0
22/12:00am 10.1 9.1 8.7 91 0.7 ESE 4 7 2 4 1016.7 1014.0 15.0
 
Date/Time
EDT
Temp
°C
App
Temp
°C
Dew
Point
°C
Rel
Hum
%
Delta-T
°C
Wind Press
QNH
hPa
Press
MSL
hPa
Rain since
9am
mm
Dir  Spd
km/h
Gust
km/h
Spd
kts
Gust
kts
21/11:30pm 10.2 9.2 8.8 91 0.7 ENE 4 9 2 5 1016.8 1014.1 15.0

Other Formats:

Comma delimited format used in spreadsheet applications
http://www.bom.gov.au/fwo/IDN60801/IDN60801.94553.axf

JavaScript Object Notation format (JSON) in row-major order
http://www.bom.gov.au/fwo/IDN60801/IDN60801.94553.json